Terminal Aerodrome Forecast
Issued by NWS

Home | Current Version | Previous Version | Text Only | Print | Product List | Glossary Off
Versions: 1 2 3 4 5 6 7 8 9 10 11 12 13 14 15 16 17 18
000 FTUS41 KBOX 271126 TAFBED TAF KBED 271126Z 2712/2812 04004KT P6SM BKN250 FM271600 13004KT P6SM BKN070 FM272000 17007KT P6SM SCT080 FM272300 21010G21KT P6SM SCT120 FM280200 22007KT P6SM SCT100=

USA.gov is the U.S. government's official web portal to all federal, state and local government web resources and services.